Fern Park, Florida
Current Conditions -  °F | °C
As of 3:53 PM on Thursday 18 Dec 2014 (Local Time) from KORL Reporting Station
Clear Clear  
Wind Chill: 69°   Ceiling: Unl
Heat Index: 69°   Visibility: 10mi
Dew Point: 47°   Wind: 5mph
Humidity: 45%   Direction: 260°W
Pressure: 30.09"   Gusts: NA
Location:  28.653°N, 81.3426°W
Report Text: KORL 182053Z AUTO 26004KT 10SM CLR 21/08 A3009 RMK AO2 SLP194 T02060083 56018
Loading
Personal Weather Stations






























Interactive Weather Map New forecast layout! Learn more

10-Day Weather Forecast

Advertisements
Track Severe Weather on mobile